Terminal Aerodrome Forecast
Issued by NWS La Crosse, WI

Home | Current Version | Previous Version | Text Only | Print | Product List | Glossary On
Versions: 1 2 3 4 5 6 7 8 9 10 11 12 13 14
000
FTUS43 KARX 202328
TAFLSE
TAF
KLSE 202328Z 2100/2124 19010KT 3SM -RA BR OVC020
     FM210300 22007KT 4SM BR VCSH SCT025 OVC060
     FM210900 29012KT P6SM BKN015
     FM211200 27004KT 1SM BR BKN009
     FM211600 23007KT P6SM FEW200=

USA.gov is the U.S. government's official web portal to all federal, state and local government web resources and services.